createdAt,value
2018-03-25T00:02:10.293Z,11.23
2018-03-25T00:04:37.781Z,11.10
2018-03-25T00:07:05.247Z,11.20
2018-03-25T00:09:33.032Z,11.20
2018-03-25T00:12:00.494Z,10.80
2018-03-25T00:14:27.938Z,10.40
2018-03-25T00:16:55.423Z,10.77
2018-03-25T00:19:22.869Z,12.37
2018-03-25T00:21:50.349Z,11.10
2018-03-25T00:24:17.805Z,12.10
2018-03-25T00:26:45.266Z,10.90
2018-03-25T00:29:12.726Z,11.00
2018-03-25T00:31:40.189Z,11.50
2018-03-25T00:34:07.742Z,12.77
2018-03-25T00:36:35.189Z,12.87
2018-03-25T00:39:02.657Z,11.67
2018-03-25T00:41:30.122Z,12.10
2018-03-25T00:43:57.569Z,11.50
2018-03-25T00:46:25.199Z,10.50
2018-03-25T00:48:52.657Z,12.30
2018-03-25T00:51:20.139Z,11.57
2018-03-25T00:53:47.605Z,12.70
2018-03-25T00:56:15.056Z,11.33
2018-03-25T00:58:42.750Z,12.37
2018-03-25T01:01:12.201Z,11.40
2018-03-25T01:03:39.665Z,11.87
2018-03-25T01:06:07.135Z,12.50
2018-03-25T01:08:34.577Z,10.77
2018-03-25T01:11:02.061Z,13.07
2018-03-25T01:13:29.514Z,12.20
2018-03-25T01:16:10.177Z,11.60
2018-03-25T01:18:37.635Z,12.60
2018-03-25T01:21:05.115Z,12.13
2018-03-25T01:23:32.605Z,11.73
2018-03-25T01:26:00.056Z,12.53
2018-03-25T01:28:27.529Z,12.17
2018-03-25T01:30:54.982Z,11.77
2018-03-25T01:33:22.433Z,11.87
2018-03-25T01:35:49.904Z,12.43
2018-03-25T01:38:17.370Z,12.80
2018-03-25T01:40:44.847Z,12.47
2018-03-25T01:43:12.294Z,10.97
2018-03-25T01:45:39.847Z,12.33
2018-03-25T01:48:07.328Z,11.47
2018-03-25T01:50:34.797Z,11.70
2018-03-25T01:53:02.521Z,11.33
2018-03-25T01:55:29.973Z,11.00
2018-03-25T01:57:57.470Z,10.10
2018-03-25T02:00:24.949Z,12.13
2018-03-25T02:02:52.400Z,12.13
2018-03-25T02:05:20.061Z,10.60
2018-03-25T02:07:47.552Z,11.50
2018-03-25T02:10:15.006Z,10.60
2018-03-25T02:12:42.504Z,11.90
2018-03-25T02:15:09.981Z,10.13
2018-03-25T02:17:37.488Z,11.10
2018-03-25T02:20:04.951Z,10.73
2018-03-25T02:22:32.401Z,12.00
2018-03-25T02:24:59.885Z,11.20
2018-03-25T02:27:27.340Z,9.73
2018-03-25T02:29:55.074Z,9.30
2018-03-25T02:32:22.521Z,10.63
2018-03-25T02:34:49.989Z,11.10
2018-03-25T02:37:17.497Z,10.47
2018-03-25T02:39:44.969Z,12.27
2018-03-25T02:42:12.623Z,11.30
2018-03-25T02:44:40.079Z,11.00
2018-03-25T02:47:07.530Z,10.13
2018-03-25T02:49:35.005Z,10.63
2018-03-25T02:52:02.460Z,11.57
2018-03-25T02:54:29.942Z,10.07
2018-03-25T02:56:57.404Z,11.70
2018-03-25T02:59:24.845Z,9.27
2018-03-25T03:01:52.365Z,12.07
2018-03-25T03:04:19.814Z,10.47
2018-03-25T03:06:47.289Z,11.50
2018-03-25T03:09:14.781Z,10.97
2018-03-25T03:11:42.250Z,10.33
2018-03-25T03:14:09.723Z,11.77
2018-03-25T03:16:37.180Z,10.40
2018-03-25T03:19:04.666Z,12.97
2018-03-25T03:21:32.114Z,10.57
2018-03-25T03:23:59.564Z,10.77
2018-03-25T03:26:27.949Z,11.37
2018-03-25T03:28:55.403Z,10.13
2018-03-25T03:31:22.909Z,10.70
2018-03-25T03:33:50.385Z,11.73
2018-03-25T03:36:17.857Z,10.33
2018-03-25T03:38:45.325Z,11.30
2018-03-25T03:41:12.790Z,12.00
2018-03-25T03:43:40.393Z,11.40
2018-03-25T03:46:07.989Z,11.87
2018-03-25T03:48:35.444Z,11.03
2018-03-25T03:51:02.940Z,10.33
2018-03-25T03:53:30.404Z,11.10
2018-03-25T03:55:58.078Z,12.17
2018-03-25T03:58:25.533Z,9.90
2018-03-25T04:00:52.991Z,10.00
2018-03-25T04:03:20.461Z,10.43
2018-03-25T04:05:48.089Z,9.73
2018-03-25T04:08:15.713Z,11.80
2018-03-25T04:10:43.194Z,12.20
2018-03-25T04:13:10.645Z,11.03
2018-03-25T04:15:38.137Z,10.50
2018-03-25T04:18:05.595Z,10.40
2018-03-25T04:20:33.257Z,10.07
2018-03-25T04:23:00.701Z,12.90
2018-03-25T04:25:28.165Z,11.00
2018-03-25T04:27:55.669Z,10.63
2018-03-25T04:30:23.117Z,11.53
2018-03-25T04:32:50.718Z,10.93
2018-03-25T04:35:18.169Z,12.80
2018-03-25T04:37:45.635Z,12.70
2018-03-25T04:40:13.112Z,10.67
2018-03-25T04:42:40.585Z,11.43
2018-03-25T04:45:08.110Z,10.20
2018-03-25T04:47:35.578Z,11.27
2018-03-25T04:50:03.046Z,10.40
2018-03-25T04:52:30.513Z,10.40
2018-03-25T04:54:57.964Z,11.33
2018-03-25T04:57:25.726Z,11.03
2018-03-25T04:59:53.173Z,10.23
2018-03-25T05:02:20.654Z,10.70
2018-03-25T05:04:48.130Z,10.50
2018-03-25T05:07:15.589Z,10.97
2018-03-25T05:09:43.273Z,11.43
2018-03-25T05:12:10.725Z,11.13
2018-03-25T05:14:38.175Z,10.73
2018-03-25T05:17:05.650Z,11.00
2018-03-25T05:19:33.130Z,10.13
2018-03-25T05:22:00.619Z,11.63
2018-03-25T05:24:28.069Z,10.77
2018-03-25T05:26:55.521Z,10.77
2018-03-25T05:29:23.009Z,12.00
2018-03-25T05:31:50.591Z,10.60
2018-03-25T05:34:18.385Z,10.07
2018-03-25T05:36:45.861Z,9.90
2018-03-25T05:39:13.309Z,10.90
2018-03-25T05:41:40.795Z,11.13
2018-03-25T05:44:08.247Z,11.70
2018-03-25T05:46:35.774Z,9.47
2018-03-25T05:49:03.231Z,10.57
2018-03-25T05:51:30.681Z,10.30
2018-03-25T05:53:58.230Z,10.30
2018-03-25T05:56:25.673Z,12.40
2018-03-25T05:58:53.289Z,13.90
2018-03-25T06:01:20.770Z,13.57
2018-03-25T06:03:48.209Z,11.50
2018-03-25T06:06:15.693Z,13.23
2018-03-25T06:08:43.143Z,11.53
2018-03-25T06:11:10.665Z,13.80
2018-03-25T06:13:38.126Z,11.33
2018-03-25T06:16:05.569Z,12.13
2018-03-25T06:18:33.038Z,13.17
2018-03-25T06:21:00.494Z,11.70
2018-03-25T06:23:28.211Z,11.67
2018-03-25T06:25:55.670Z,13.23
2018-03-25T06:28:23.113Z,14.00
2018-03-25T06:30:50.613Z,14.27
2018-03-25T06:33:18.078Z,14.97
2018-03-25T06:35:45.745Z,14.70
2018-03-25T06:38:13.189Z,15.20
2018-03-25T06:40:40.625Z,14.70
2018-03-25T06:43:08.196Z,13.17
2018-03-25T06:45:35.657Z,13.40
2018-03-25T06:48:03.143Z,13.33
2018-03-25T06:50:30.602Z,11.40
2018-03-25T06:52:58.101Z,12.63
2018-03-25T06:55:25.578Z,12.47
2018-03-25T06:57:53.025Z,13.20
2018-03-25T07:00:20.639Z,12.90
2018-03-25T07:02:48.119Z,12.67
2018-03-25T07:05:15.549Z,13.80
2018-03-25T07:07:43.014Z,13.00
2018-03-25T07:10:10.470Z,11.17
2018-03-25T07:12:37.965Z,13.80
2018-03-25T07:15:05.413Z,14.00
2018-03-25T07:17:32.874Z,14.17
2018-03-25T07:20:00.351Z,13.93
2018-03-25T07:22:27.862Z,12.40
2018-03-25T07:24:55.331Z,13.20
2018-03-25T07:27:22.776Z,13.47
2018-03-25T07:29:50.226Z,13.70
2018-03-25T07:32:17.690Z,14.30
2018-03-25T07:34:45.135Z,13.43
2018-03-25T07:37:12.781Z,12.80
2018-03-25T07:39:40.233Z,13.17
2018-03-25T07:42:08.233Z,13.23
2018-03-25T07:44:36.191Z,13.13
2018-03-25T07:47:04.023Z,14.33
2018-03-25T07:49:31.499Z,14.73
2018-03-25T07:51:58.945Z,13.80
2018-03-25T07:54:26.398Z,12.83
2018-03-25T07:56:53.874Z,14.03
2018-03-25T07:59:21.323Z,12.80
2018-03-25T08:01:48.891Z,12.93
2018-03-25T08:04:16.350Z,15.67
2018-03-25T08:06:43.804Z,14.47
2018-03-25T08:09:11.316Z,14.13
2018-03-25T08:11:38.749Z,18.13
2018-03-25T08:14:06.438Z,14.97
2018-03-25T08:16:33.902Z,14.97
2018-03-25T08:19:01.371Z,15.70
2018-03-25T08:21:28.893Z,14.50
2018-03-25T08:23:56.298Z,14.40
2018-03-25T08:26:23.764Z,15.70
2018-03-25T08:28:51.209Z,13.93
2018-03-25T08:31:18.652Z,15.47
2018-03-25T08:33:46.113Z,15.00
2018-03-25T08:36:13.569Z,15.60
2018-03-25T08:38:41.299Z,14.70
2018-03-25T08:41:08.765Z,16.00
2018-03-25T08:43:36.211Z,15.60
2018-03-25T08:46:03.782Z,15.43
2018-03-25T08:48:31.250Z,15.17
2018-03-25T08:50:58.848Z,14.50
2018-03-25T08:53:26.301Z,17.13
2018-03-25T08:55:53.775Z,15.87
2018-03-25T08:58:21.250Z,15.57
2018-03-25T09:00:48.774Z,16.03
2018-03-25T09:03:16.581Z,16.37
2018-03-25T09:05:44.029Z,16.60
2018-03-25T09:08:11.482Z,16.33
2018-03-25T09:10:38.949Z,16.10
2018-03-25T09:13:06.408Z,16.57
2018-03-25T09:15:34.031Z,18.80
2018-03-25T09:18:00.784Z,16.77
2018-03-25T09:20:28.241Z,16.80
2018-03-25T09:22:55.730Z,16.60
2018-03-25T09:25:23.176Z,16.60
2018-03-25T09:27:50.853Z,17.90
2018-03-25T09:30:18.317Z,18.93
2018-03-25T09:32:45.777Z,20.07
2018-03-25T09:35:13.253Z,18.63
2018-03-25T09:37:40.710Z,20.30
2018-03-25T09:40:08.521Z,20.03
2018-03-25T09:42:35.970Z,19.60
2018-03-25T09:45:03.431Z,21.33
2018-03-25T09:47:30.898Z,21.87
2018-03-25T09:49:58.361Z,19.57
2018-03-25T09:52:25.989Z,21.67
2018-03-25T09:54:53.441Z,19.30
2018-03-25T09:57:20.910Z,20.40
2018-03-25T09:59:48.382Z,20.37
2018-03-25T10:02:18.781Z,19.13
2018-03-25T10:04:46.405Z,20.23
2018-03-25T10:07:13.886Z,19.30
2018-03-25T10:09:41.410Z,19.77
2018-03-25T10:12:08.879Z,20.53
2018-03-25T10:14:36.351Z,20.87
2018-03-25T10:17:03.813Z,20.77
2018-03-25T10:19:31.258Z,20.77
2018-03-25T10:21:58.842Z,20.57
2018-03-25T10:24:26.302Z,21.27
2018-03-25T10:26:53.753Z,19.80
2018-03-25T10:29:21.254Z,20.83
2018-03-25T10:31:48.705Z,21.63
2018-03-25T10:34:16.482Z,21.17
2018-03-25T10:36:43.929Z,20.97
2018-03-25T10:39:11.394Z,19.60
2018-03-25T10:41:38.935Z,20.60
2018-03-25T10:44:06.381Z,22.07
2018-03-25T10:46:33.857Z,19.57
2018-03-25T10:49:01.306Z,20.93
2018-03-25T10:51:28.762Z,21.93
2018-03-25T10:53:56.259Z,23.17
2018-03-25T10:56:23.729Z,23.63
2018-03-25T10:58:51.342Z,21.70
2018-03-25T11:01:18.792Z,21.57
2018-03-25T11:03:46.243Z,22.87
2018-03-25T11:06:13.725Z,25.47
2018-03-25T11:08:41.208Z,22.40
2018-03-25T11:11:09.125Z,23.07
2018-03-25T11:13:36.581Z,22.77
2018-03-25T11:16:04.040Z,22.37
2018-03-25T11:18:31.509Z,21.10
2018-03-25T11:20:58.988Z,21.30
2018-03-25T11:23:26.613Z,21.97
2018-03-25T11:25:54.062Z,22.07
2018-03-25T11:28:21.520Z,22.60
2018-03-25T11:30:48.993Z,20.03
2018-03-25T11:33:16.443Z,21.70
2018-03-25T11:35:43.935Z,21.53
2018-03-25T11:38:11.392Z,22.07
2018-03-25T11:40:38.878Z,22.10
2018-03-25T11:43:06.384Z,21.70
2018-03-25T11:45:33.902Z,21.43
2018-03-25T11:48:01.567Z,23.33
2018-03-25T11:50:29.016Z,22.50
2018-03-25T11:52:56.482Z,21.27
2018-03-25T11:55:23.966Z,20.77
2018-03-25T11:57:51.425Z,20.80
2018-03-25T12:00:18.937Z,22.47
2018-03-25T12:02:46.421Z,21.43
2018-03-25T12:05:13.885Z,18.93
2018-03-25T12:07:41.378Z,20.50
2018-03-25T12:10:08.869Z,20.23
2018-03-25T12:12:36.357Z,19.00
2018-03-25T12:15:03.809Z,19.10
2018-03-25T12:17:31.265Z,20.33
2018-03-25T12:19:58.757Z,21.60
2018-03-25T12:22:26.214Z,25.60
2018-03-25T12:24:53.697Z,21.07
2018-03-25T12:27:21.145Z,20.73
2018-03-25T12:29:48.603Z,19.80
2018-03-25T12:32:16.302Z,20.83
2018-03-25T12:34:43.770Z,20.17
2018-03-25T12:37:11.350Z,19.60
2018-03-25T12:39:38.803Z,19.70
2018-03-25T12:42:06.253Z,21.00
2018-03-25T12:44:33.741Z,21.07
2018-03-25T12:47:01.193Z,20.13
2018-03-25T12:49:29.006Z,19.50
2018-03-25T12:51:56.463Z,21.03
2018-03-25T12:54:23.909Z,21.60
2018-03-25T12:56:51.382Z,23.03
2018-03-25T12:59:18.837Z,19.63
2018-03-25T13:01:46.318Z,21.37
2018-03-25T13:04:13.766Z,19.90
2018-03-25T13:06:41.221Z,20.90
2018-03-25T13:09:08.863Z,19.90
2018-03-25T13:11:36.328Z,18.57
2018-03-25T13:14:04.212Z,18.43
2018-03-25T13:16:31.675Z,16.63
2018-03-25T13:18:59.129Z,18.97
2018-03-25T13:21:26.609Z,19.67
2018-03-25T13:23:54.065Z,18.57
2018-03-25T13:26:21.557Z,19.10
2018-03-25T13:28:49.042Z,18.60
2018-03-25T13:31:16.489Z,18.60
2018-03-25T13:33:43.957Z,18.00
2018-03-25T13:36:11.409Z,20.33
2018-03-25T13:38:38.889Z,18.40
2018-03-25T13:41:06.362Z,19.33
2018-03-25T13:43:33.810Z,18.67
2018-03-25T13:46:01.303Z,19.40
2018-03-25T13:48:28.768Z,20.80
2018-03-25T13:50:56.222Z,19.53
2018-03-25T13:53:23.700Z,19.80
2018-03-25T13:55:51.165Z,20.63
2018-03-25T13:58:18.658Z,19.70
2018-03-25T14:00:46.338Z,21.57
2018-03-25T14:03:13.809Z,21.07
2018-03-25T14:05:41.265Z,20.00
2018-03-25T14:08:08.882Z,21.87
2018-03-25T14:10:36.332Z,21.60
2018-03-25T14:13:03.790Z,20.97
2018-03-25T14:15:31.296Z,20.70
2018-03-25T14:17:58.772Z,21.80
2018-03-25T14:20:26.228Z,20.00
2018-03-25T14:22:53.895Z,21.20
2018-03-25T14:25:21.351Z,20.63
2018-03-25T14:27:48.818Z,21.30
2018-03-25T14:30:16.311Z,22.40
2018-03-25T14:32:43.781Z,26.90
2018-03-25T14:35:11.242Z,20.90
2018-03-25T14:37:39.013Z,21.20
2018-03-25T14:40:06.463Z,20.57
2018-03-25T14:42:33.953Z,22.30
2018-03-25T14:45:01.455Z,20.80
2018-03-25T14:47:28.925Z,21.80
2018-03-25T14:49:56.391Z,18.87
2018-03-25T14:52:23.904Z,21.30
2018-03-25T14:54:51.384Z,21.17
2018-03-25T14:57:18.869Z,19.37
2018-03-25T14:59:46.333Z,22.17
2018-03-25T15:02:13.811Z,21.80
2018-03-25T15:04:41.285Z,20.33
2018-03-25T15:07:08.751Z,19.50
2018-03-25T15:09:36.405Z,21.10
2018-03-25T15:12:03.869Z,22.10
2018-03-25T15:14:31.318Z,20.67
2018-03-25T15:16:58.793Z,19.70
2018-03-25T15:19:26.275Z,21.30
2018-03-25T15:21:54.042Z,21.70
2018-03-25T15:24:21.552Z,21.47
2018-03-25T15:26:49.006Z,22.20
2018-03-25T15:29:16.477Z,20.90
2018-03-25T15:31:43.946Z,21.53
2018-03-25T15:34:11.629Z,22.27
2018-03-25T15:36:39.119Z,21.70
2018-03-25T15:39:06.879Z,21.93
2018-03-25T15:41:34.377Z,20.50
2018-03-25T15:44:01.872Z,20.07
2018-03-25T15:46:29.373Z,20.57
2018-03-25T15:48:56.869Z,19.67
2018-03-25T15:51:24.321Z,19.27
2018-03-25T15:53:51.805Z,23.07
2018-03-25T15:56:19.266Z,20.70
2018-03-25T15:58:46.891Z,19.93
2018-03-25T16:01:14.402Z,18.97
2018-03-25T16:03:41.871Z,19.30
2018-03-25T16:06:09.351Z,21.20
2018-03-25T16:08:36.803Z,20.20
2018-03-25T16:11:04.293Z,20.30
2018-03-25T16:13:31.757Z,20.73
2018-03-25T16:15:59.205Z,19.33
2018-03-25T16:18:26.677Z,21.30
2018-03-25T16:20:54.133Z,18.97
2018-03-25T16:23:21.943Z,20.57
2018-03-25T16:25:49.428Z,19.77
2018-03-25T16:28:16.881Z,21.50
2018-03-25T16:30:44.371Z,20.73
2018-03-25T16:33:11.885Z,19.37
2018-03-25T16:35:39.381Z,20.33
2018-03-25T16:38:06.857Z,20.20
2018-03-25T16:40:34.335Z,21.30
2018-03-25T16:43:01.810Z,20.43
2018-03-25T16:45:29.288Z,20.23
2018-03-25T16:47:56.785Z,20.80
2018-03-25T16:50:24.250Z,19.83
2018-03-25T16:52:51.723Z,21.30
2018-03-25T16:55:19.215Z,20.43
2018-03-25T16:57:46.663Z,20.57
2018-03-25T17:00:14.298Z,19.83
2018-03-25T17:02:41.784Z,20.57
2018-03-25T17:05:09.258Z,20.90
2018-03-25T17:07:36.749Z,19.47
2018-03-25T17:10:04.221Z,21.03
2018-03-25T17:12:31.842Z,20.50
2018-03-25T17:15:00.268Z,21.13
2018-03-25T17:17:27.745Z,18.50
2018-03-25T17:19:55.227Z,19.27
2018-03-25T17:22:22.705Z,20.37
2018-03-25T17:24:50.520Z,17.60
2018-03-25T17:27:18.021Z,19.67
2018-03-25T17:29:45.487Z,20.00
2018-03-25T17:32:12.990Z,19.67
2018-03-25T17:34:40.449Z,19.43
2018-03-25T17:37:07.933Z,17.53
2018-03-25T17:39:35.390Z,17.43
2018-03-25T17:42:02.849Z,16.83
2018-03-25T17:44:30.331Z,15.80
2018-03-25T17:46:57.786Z,15.77
2018-03-25T17:49:25.649Z,15.57
2018-03-25T17:51:53.146Z,15.40
2018-03-25T17:54:20.610Z,16.13
2018-03-25T17:56:48.174Z,17.37
2018-03-25T17:59:15.656Z,16.07
2018-03-25T18:01:43.166Z,16.37
2018-03-25T18:04:10.651Z,14.70
2018-03-25T18:06:38.122Z,15.20
2018-03-25T18:09:06.561Z,14.30
2018-03-25T18:11:34.029Z,14.40
2018-03-25T18:14:01.549Z,14.43
2018-03-25T18:16:29.022Z,13.10
2018-03-25T18:18:56.478Z,12.20
2018-03-25T18:21:23.953Z,12.50
2018-03-25T18:23:51.410Z,12.17
2018-03-25T18:26:19.039Z,12.70
2018-03-25T18:28:46.512Z,12.97
2018-03-25T18:31:14.003Z,11.80
2018-03-25T18:33:41.494Z,10.40
2018-03-25T18:36:08.964Z,12.33
2018-03-25T18:38:36.676Z,11.33
2018-03-25T18:41:04.133Z,11.93
2018-03-25T18:43:31.597Z,11.10
2018-03-25T18:45:59.078Z,12.50
2018-03-25T18:48:26.559Z,10.30
2018-03-25T18:50:54.197Z,10.50
2018-03-25T18:53:21.658Z,11.70
2018-03-25T18:55:49.147Z,11.57
2018-03-25T18:58:16.681Z,11.67
2018-03-25T19:00:44.132Z,12.53
2018-03-25T19:03:11.613Z,11.87
2018-03-25T19:05:39.073Z,11.90
2018-03-25T19:08:06.528Z,12.13
2018-03-25T19:10:34.005Z,12.47
2018-03-25T19:13:01.468Z,12.10
2018-03-25T19:15:29.140Z,11.30
2018-03-25T19:17:56.586Z,11.67
2018-03-25T19:20:24.033Z,11.93
2018-03-25T19:22:51.501Z,12.50
2018-03-25T19:25:18.950Z,12.23
2018-03-25T19:27:46.650Z,11.53
2018-03-25T19:30:14.106Z,12.00
2018-03-25T19:32:41.557Z,10.93
2018-03-25T19:35:09.026Z,11.23
2018-03-25T19:37:36.478Z,11.00
2018-03-25T19:40:04.090Z,12.40
2018-03-25T19:42:31.553Z,11.57
2018-03-25T19:44:59.001Z,10.47
2018-03-25T19:47:26.485Z,11.63
2018-03-25T19:49:53.946Z,11.67
2018-03-25T19:52:22.121Z,13.03
2018-03-25T19:54:49.595Z,11.30
2018-03-25T19:57:17.050Z,12.27
2018-03-25T19:59:44.529Z,11.37
2018-03-25T20:02:12.006Z,10.43
2018-03-25T20:04:39.817Z,11.47
2018-03-25T20:07:07.274Z,11.10
2018-03-25T20:09:34.720Z,10.67
2018-03-25T20:12:02.187Z,12.03
2018-03-25T20:14:29.711Z,11.90
2018-03-25T20:16:57.291Z,11.20
2018-03-25T20:19:24.753Z,13.53
2018-03-25T20:21:52.201Z,9.90
2018-03-25T20:24:19.665Z,12.70
2018-03-25T20:26:47.126Z,12.30
2018-03-25T20:29:14.881Z,11.90
2018-03-25T20:31:42.329Z,12.50
2018-03-25T20:34:09.794Z,12.50
2018-03-25T20:36:37.281Z,12.47
2018-03-25T20:39:04.742Z,12.57
2018-03-25T20:41:32.384Z,11.87
2018-03-25T20:43:59.825Z,12.13
2018-03-25T20:46:27.277Z,13.40
2018-03-25T20:48:54.757Z,13.83
2018-03-25T20:51:22.211Z,12.40
2018-03-25T20:53:49.923Z,12.73
2018-03-25T20:56:17.366Z,13.80
2018-03-25T20:58:44.813Z,15.77
2018-03-25T21:01:12.282Z,12.93
2018-03-25T21:03:39.734Z,13.27
2018-03-25T21:06:07.284Z,13.30
2018-03-25T21:08:34.729Z,14.80
2018-03-25T21:11:02.185Z,13.90
2018-03-25T21:13:29.674Z,13.43
2018-03-25T21:15:57.117Z,14.57
2018-03-25T21:18:24.601Z,14.47
2018-03-25T21:20:52.053Z,15.53
2018-03-25T21:23:19.506Z,14.60
2018-03-25T21:25:46.986Z,14.20
2018-03-25T21:28:14.429Z,14.97
2018-03-25T21:30:42.074Z,13.30
2018-03-25T21:33:09.518Z,13.03
2018-03-25T21:35:37.075Z,15.00
2018-03-25T21:38:04.538Z,14.00
2018-03-25T21:40:32.000Z,15.60
2018-03-25T21:42:59.474Z,15.00
2018-03-25T21:45:26.924Z,15.23
2018-03-25T21:47:54.372Z,15.07
2018-03-25T21:50:21.844Z,14.27
2018-03-25T21:52:49.335Z,15.10
2018-03-25T21:55:16.985Z,15.57
2018-03-25T21:57:44.471Z,16.50
2018-03-25T22:00:11.950Z,15.03
2018-03-25T22:02:39.428Z,15.80
2018-03-25T22:05:06.911Z,14.90
2018-03-25T22:07:34.657Z,14.37
2018-03-25T22:10:02.116Z,15.97
2018-03-25T22:12:29.586Z,15.63
2018-03-25T22:14:57.056Z,15.87
2018-03-25T22:17:24.514Z,15.30
2018-03-25T22:19:52.228Z,14.93
2018-03-25T22:22:19.683Z,16.40
2018-03-25T22:24:47.134Z,14.27
2018-03-25T22:27:14.601Z,16.73
2018-03-25T22:29:42.070Z,14.27
2018-03-25T22:32:09.780Z,15.93
2018-03-25T22:34:37.197Z,15.47
2018-03-25T22:37:04.663Z,16.10
2018-03-25T22:39:32.139Z,16.57
2018-03-25T22:41:59.585Z,16.37
2018-03-25T22:44:27.409Z,16.73
2018-03-25T22:46:54.857Z,16.40
2018-03-25T22:49:22.298Z,15.30
2018-03-25T22:51:49.757Z,16.67
2018-03-25T22:54:17.201Z,18.60
2018-03-25T22:56:44.838Z,17.43
2018-03-25T22:59:12.281Z,18.57
2018-03-25T23:01:39.729Z,17.07
2018-03-25T23:04:07.205Z,16.67
2018-03-25T23:06:34.657Z,19.03
2018-03-25T23:09:02.496Z,18.20
2018-03-25T23:11:29.942Z,16.80
2018-03-25T23:13:57.389Z,17.30
2018-03-25T23:16:24.885Z,19.43
2018-03-25T23:18:52.342Z,15.83
2018-03-25T23:21:20.051Z,16.97
2018-03-25T23:23:47.510Z,17.23
2018-03-25T23:26:14.973Z,16.93
2018-03-25T23:28:42.445Z,17.50
2018-03-25T23:31:09.889Z,15.80
2018-03-25T23:33:37.369Z,14.87
2018-03-25T23:36:04.825Z,16.03
2018-03-25T23:38:32.290Z,17.10
2018-03-25T23:40:59.783Z,18.03
2018-03-25T23:43:27.228Z,17.07
2018-03-25T23:45:54.865Z,17.60
2018-03-25T23:48:22.325Z,17.70
2018-03-25T23:50:49.766Z,17.13
2018-03-25T23:53:17.256Z,16.93
2018-03-25T23:55:44.697Z,16.80
2018-03-25T23:58:12.173Z,16.93
